createdAt,value
2018-02-14T00:01:25.116Z,-3.10
2018-02-14T00:03:52.594Z,-3.00
2018-02-14T00:06:20.130Z,-3.10
2018-02-14T00:08:47.601Z,-3.10
2018-02-14T00:11:15.170Z,-3.20
2018-02-14T00:13:42.791Z,-3.20
2018-02-14T00:16:10.256Z,-3.20
2018-02-14T00:18:37.710Z,-3.30
2018-02-14T00:21:06.008Z,-3.30
2018-02-14T00:23:33.482Z,-3.30
2018-02-14T00:26:00.949Z,-3.40
2018-02-14T00:28:28.486Z,-3.40
2018-02-14T00:30:55.953Z,-3.40
2018-02-14T00:33:23.442Z,-3.40
2018-02-14T00:35:51.691Z,-3.40
2018-02-14T00:38:19.172Z,-3.40
2018-02-14T00:40:47.411Z,-3.40
2018-02-14T00:43:14.893Z,-3.40
2018-02-14T00:45:42.368Z,-3.50
2018-02-14T00:48:10.616Z,-3.50
2018-02-14T00:50:38.086Z,-3.50
2018-02-14T00:53:05.582Z,-3.50
2018-02-14T00:55:33.039Z,-3.50
2018-02-14T00:58:00.521Z,-3.50
2018-02-14T01:00:27.986Z,-3.40
2018-02-14T01:02:55.466Z,-3.40
2018-02-14T01:05:22.931Z,-3.40
2018-02-14T01:07:50.404Z,-3.40
2018-02-14T01:10:17.872Z,-3.40
2018-02-14T01:12:46.119Z,-3.40
2018-02-14T01:15:13.586Z,-3.50
2018-02-14T01:17:41.072Z,-3.40
2018-02-14T01:20:08.540Z,-3.40
2018-02-14T01:22:46.775Z,-3.40
2018-02-14T01:25:14.256Z,-3.50
2018-02-14T01:27:41.754Z,-3.60
2018-02-14T01:30:10.009Z,-3.60
2018-02-14T01:32:37.476Z,-3.60
2018-02-14T01:35:05.726Z,-3.60
2018-02-14T01:37:33.205Z,-3.60
2018-02-14T01:40:00.673Z,-3.60
2018-02-14T01:42:28.148Z,-3.60
2018-02-14T01:44:55.608Z,-3.60
2018-02-14T01:47:23.084Z,-3.70
2018-02-14T01:49:50.569Z,-3.60
2018-02-14T01:52:18.042Z,-3.60
2018-02-14T01:54:45.524Z,-3.70
2018-02-14T01:57:13.760Z,-3.80
2018-02-14T01:59:41.257Z,-3.80
2018-02-14T02:02:09.483Z,-3.80
2018-02-14T02:04:36.954Z,-3.80
2018-02-14T02:07:04.428Z,-3.90
2018-02-14T02:09:31.935Z,-4.10
2018-02-14T02:11:59.400Z,-4.10
2018-02-14T02:14:26.865Z,-4.10
2018-02-14T02:16:54.351Z,-4.00
2018-02-14T02:19:22.589Z,-4.00
2018-02-14T02:21:50.067Z,-4.00
2018-02-14T02:24:17.543Z,-4.00
2018-02-14T02:26:45.042Z,-4.00
2018-02-14T02:29:13.273Z,-4.10
2018-02-14T02:31:40.749Z,-4.10
2018-02-14T02:34:08.213Z,-4.10
2018-02-14T02:36:35.688Z,-4.10
2018-02-14T02:41:58.898Z,-4.10
2018-02-14T02:44:26.394Z,-4.10
2018-02-14T02:46:53.870Z,-4.10
2018-02-14T02:49:22.129Z,-4.20
2018-02-14T02:51:49.602Z,-4.20
2018-02-14T02:54:17.086Z,-4.10
2018-02-14T02:56:44.560Z,-4.10
2018-02-14T02:59:12.040Z,-4.10
2018-02-14T03:01:39.508Z,-4.10
2018-02-14T03:04:06.985Z,-4.10
2018-02-14T03:06:34.444Z,-4.10
2018-02-14T03:09:01.903Z,-4.20
2018-02-14T03:11:29.386Z,-4.20
2018-02-14T03:13:56.868Z,-4.20
2018-02-14T03:16:24.345Z,-4.40
2018-02-14T03:18:52.582Z,-4.50
2018-02-14T03:21:20.818Z,-4.60
2018-02-14T03:23:48.294Z,-4.60
2018-02-14T03:26:15.762Z,-4.70
2018-02-14T03:28:44.005Z,-4.60
2018-02-14T03:31:11.474Z,-4.60
2018-02-14T03:33:38.955Z,-4.60
2018-02-14T03:36:07.207Z,-4.60
2018-02-14T03:38:34.678Z,-4.60
2018-02-14T03:41:02.164Z,-4.60
2018-02-14T03:43:29.640Z,-4.60
2018-02-14T03:45:57.116Z,-4.60
2018-02-14T03:48:25.576Z,-4.60
2018-02-14T03:50:53.056Z,-4.60
2018-02-14T03:53:20.521Z,-4.70
2018-02-14T03:55:48.004Z,-4.70
2018-02-14T03:58:15.489Z,-4.70
2018-02-14T04:00:42.993Z,-4.70
2018-02-14T04:03:10.492Z,-4.80
2018-02-14T04:05:38.723Z,-4.80
2018-02-14T04:08:06.200Z,-4.80
2018-02-14T04:10:33.657Z,-4.90
2018-02-14T04:13:01.127Z,-4.90
2018-02-14T04:15:28.600Z,-4.90
2018-02-14T04:17:56.848Z,-4.90
2018-02-14T04:20:24.313Z,-4.90
2018-02-14T04:22:51.780Z,-4.90
2018-02-14T04:25:19.266Z,-4.90
2018-02-14T04:27:46.757Z,-4.80
2018-02-14T04:30:19.097Z,-4.80
2018-02-14T04:32:46.581Z,-4.80
2018-02-14T04:35:14.048Z,-4.80
2018-02-14T04:37:41.539Z,-4.80
2018-02-14T04:40:09.013Z,-4.80
2018-02-14T04:42:37.262Z,-4.80
2018-02-14T04:45:04.721Z,-4.80
2018-02-14T04:47:32.201Z,-4.80
2018-02-14T04:50:00.463Z,-4.80
2018-02-14T04:52:27.940Z,-4.80
2018-02-14T04:54:56.186Z,-4.80
2018-02-14T04:57:23.670Z,-4.80
2018-02-14T04:59:51.920Z,-4.80
2018-02-14T05:02:19.385Z,-4.80
2018-02-14T05:04:46.875Z,-4.80
2018-02-14T05:07:15.135Z,-4.80
2018-02-14T05:09:42.608Z,-4.90
2018-02-14T05:12:10.852Z,-4.80
2018-02-14T05:14:38.341Z,-4.90
2018-02-14T05:17:06.579Z,-4.80
2018-02-14T05:19:34.047Z,-4.90
2018-02-14T05:22:06.781Z,-4.80
2018-02-14T05:24:34.264Z,-4.80
2018-02-14T05:27:01.737Z,-4.80
2018-02-14T05:29:29.978Z,-4.80
2018-02-14T05:31:57.450Z,-4.80
2018-02-14T05:34:24.934Z,-4.80
2018-02-14T05:36:52.420Z,-4.80
2018-02-14T05:39:19.917Z,-4.90
2018-02-14T05:41:47.380Z,-4.90
2018-02-14T05:44:14.858Z,-4.90
2018-02-14T05:46:42.327Z,-5.00
2018-02-14T05:49:09.813Z,-5.20
2018-02-14T05:51:38.058Z,-5.50
2018-02-14T05:54:05.541Z,-5.50
2018-02-14T05:56:33.770Z,-5.40
2018-02-14T05:59:01.250Z,-5.40
2018-02-14T06:01:28.722Z,-5.30
2018-02-14T06:03:56.232Z,-5.30
2018-02-14T06:06:23.707Z,-5.20
2018-02-14T06:08:51.210Z,-5.30
2018-02-14T06:11:19.474Z,-5.30
2018-02-14T06:13:46.959Z,-5.30
2018-02-14T06:16:15.193Z,-5.40
2018-02-14T06:18:42.655Z,-5.40
2018-02-14T06:21:10.901Z,-5.30
2018-02-14T06:23:38.386Z,-5.30
2018-02-14T06:26:05.870Z,-5.30
2018-02-14T06:28:33.346Z,-5.30
2018-02-14T06:31:00.836Z,-5.40
2018-02-14T06:33:28.307Z,-5.40
2018-02-14T06:35:55.810Z,-5.40
2018-02-14T06:38:23.277Z,-5.40
2018-02-14T06:40:50.753Z,-5.50
2018-02-14T06:43:18.230Z,-5.40
2018-02-14T06:45:45.704Z,-5.40
2018-02-14T06:48:13.164Z,-5.30
2018-02-14T06:50:40.640Z,-5.30
2018-02-14T06:53:08.153Z,-5.20
2018-02-14T06:55:35.662Z,-5.20
2018-02-14T06:58:03.133Z,-5.10
2018-02-14T07:00:31.393Z,-5.10
2018-02-14T07:02:58.870Z,-5.20
2018-02-14T07:05:27.116Z,-5.30
2018-02-14T07:07:54.704Z,-5.30
2018-02-14T07:10:22.977Z,-5.50
2018-02-14T07:12:51.240Z,-5.60
2018-02-14T07:15:18.755Z,-5.60
2018-02-14T07:17:46.234Z,-5.60
2018-02-14T07:20:13.710Z,-5.50
2018-02-14T07:22:41.198Z,-5.50
2018-02-14T07:25:09.481Z,-5.50
2018-02-14T07:27:36.976Z,-5.60
2018-02-14T07:30:04.492Z,-5.40
2018-02-14T07:32:31.991Z,-5.30
2018-02-14T07:34:59.516Z,-5.20
2018-02-14T07:37:27.059Z,-5.20
2018-02-14T07:39:54.542Z,-5.10
2018-02-14T07:42:22.022Z,-5.00
2018-02-14T07:44:49.485Z,-5.00
2018-02-14T07:47:16.950Z,-4.90
2018-02-14T07:49:44.661Z,-4.80
2018-02-14T07:52:12.928Z,-4.70
2018-02-14T07:54:41.176Z,-4.70
2018-02-14T07:57:08.658Z,-4.70
2018-02-14T07:59:36.133Z,-4.60
2018-02-14T08:02:04.373Z,-4.50
2018-02-14T08:04:31.856Z,-4.50
2018-02-14T08:06:59.322Z,-4.50
2018-02-14T08:09:27.588Z,-4.40
2018-02-14T08:11:55.056Z,-4.40
2018-02-14T08:14:23.303Z,-4.20
2018-02-14T08:16:50.795Z,-4.30
2018-02-14T08:19:19.026Z,-4.10
2018-02-14T08:21:46.507Z,-4.20
2018-02-14T08:24:13.994Z,-4.10
2018-02-14T08:26:41.457Z,-4.00
2018-02-14T08:29:08.944Z,-4.00
2018-02-14T08:31:36.424Z,-3.90
2018-02-14T08:34:03.916Z,-3.90
2018-02-14T08:36:32.162Z,-3.80
2018-02-14T08:39:16.091Z,-3.80
2018-02-14T08:41:43.578Z,-3.70
2018-02-14T08:44:11.043Z,-3.60
2018-02-14T08:46:38.512Z,-3.50
2018-02-14T08:49:06.759Z,-3.40
2018-02-14T08:51:34.240Z,-3.50
2018-02-14T08:54:01.720Z,-3.40
2018-02-14T08:56:29.976Z,-3.30
2018-02-14T08:58:57.412Z,-3.30
2018-02-14T09:01:24.889Z,-3.20
2018-02-14T09:03:53.126Z,-3.10
2018-02-14T09:06:20.604Z,-3.10
2018-02-14T09:08:48.075Z,-3.00
2018-02-14T09:11:15.550Z,-2.90
2018-02-14T09:13:43.776Z,-2.70
2018-02-14T09:16:11.242Z,-2.70
2018-02-14T09:18:38.719Z,-2.70
2018-02-14T09:21:06.210Z,-2.60
2018-02-14T09:23:33.685Z,-2.50
2018-02-14T09:26:01.173Z,-2.50
2018-02-14T09:28:29.400Z,-2.30
2018-02-14T09:30:56.891Z,-2.30
2018-02-14T09:33:24.360Z,-2.20
2018-02-14T09:35:51.845Z,-2.10
2018-02-14T09:38:19.326Z,-2.10
2018-02-14T09:40:47.572Z,-1.90
2018-02-14T09:43:15.046Z,-1.90
2018-02-14T09:45:42.518Z,-1.80
2018-02-14T09:48:10.749Z,-1.70
2018-02-14T09:50:38.222Z,-1.70
2018-02-14T09:53:05.691Z,-1.60
2018-02-14T09:55:33.174Z,-1.40
2018-02-14T09:58:00.638Z,-1.30
2018-02-14T10:00:28.118Z,-1.10
2018-02-14T10:02:55.603Z,-1.00
2018-02-14T10:05:23.099Z,-0.80
2018-02-14T10:07:51.330Z,-0.70
2018-02-14T10:10:18.808Z,-0.70
2018-02-14T10:12:46.270Z,-0.60
2018-02-14T10:15:13.754Z,-0.50
2018-02-14T10:17:41.994Z,-0.20
2018-02-14T10:20:09.474Z,-0.20
2018-02-14T10:22:37.698Z,0.00
2018-02-14T10:25:05.178Z,0.00
2018-02-14T10:27:32.657Z,0.10
2018-02-14T10:30:00.130Z,0.20
2018-02-14T10:32:27.611Z,0.30
2018-02-14T10:34:55.075Z,0.30
2018-02-14T10:37:22.551Z,0.40
2018-02-14T10:39:50.015Z,0.40
2018-02-14T10:42:17.489Z,0.50
2018-02-14T10:44:44.961Z,0.50
2018-02-14T10:47:12.440Z,0.60
2018-02-14T10:49:40.666Z,0.70
2018-02-14T10:52:08.141Z,0.70
2018-02-14T10:54:35.616Z,0.80
2018-02-14T10:57:03.097Z,0.90
2018-02-14T10:59:31.321Z,1.10
2018-02-14T11:02:04.414Z,1.10
2018-02-14T11:04:31.893Z,1.20
2018-02-14T11:07:04.969Z,1.20
2018-02-14T11:09:32.444Z,1.40
2018-02-14T11:11:59.936Z,1.50
2018-02-14T11:14:27.423Z,1.50
2018-02-14T11:16:54.938Z,1.60
2018-02-14T11:19:23.189Z,1.70
2018-02-14T11:21:50.665Z,1.70
2018-02-14T11:24:18.889Z,1.90
2018-02-14T11:26:46.384Z,1.90
2018-02-14T11:29:13.860Z,2.00
2018-02-14T11:31:42.123Z,2.00
2018-02-14T11:34:09.607Z,2.00
2018-02-14T11:36:37.088Z,2.10
2018-02-14T11:39:04.569Z,2.10
2018-02-14T11:41:32.093Z,2.20
2018-02-14T11:44:00.321Z,2.30
2018-02-14T11:46:27.788Z,2.30
2018-02-14T11:48:56.060Z,2.50
2018-02-14T11:51:23.545Z,2.40
2018-02-14T11:53:51.038Z,2.50
2018-02-14T11:56:18.504Z,2.60
2018-02-14T11:58:46.003Z,2.60
2018-02-14T12:01:15.159Z,2.80
2018-02-14T12:03:42.650Z,2.80
2018-02-14T12:06:10.123Z,2.90
2018-02-14T12:08:38.384Z,3.00
2018-02-14T12:11:05.854Z,3.00
2018-02-14T12:13:33.342Z,3.10
2018-02-14T12:16:00.820Z,3.10
2018-02-14T12:18:28.304Z,3.20
2018-02-14T12:20:55.782Z,3.20
2018-02-14T12:23:23.258Z,3.20
2018-02-14T12:25:51.678Z,3.30
2018-02-14T12:28:19.778Z,3.30
2018-02-14T12:30:47.285Z,3.40
2018-02-14T12:33:14.748Z,3.40
2018-02-14T12:35:42.289Z,3.50
2018-02-14T12:38:09.776Z,3.60
2018-02-14T12:40:37.274Z,3.60
2018-02-14T12:43:04.745Z,3.60
2018-02-14T12:45:32.255Z,3.60
2018-02-14T12:47:59.781Z,3.70
2018-02-14T12:50:28.019Z,3.70
2018-02-14T12:52:55.487Z,3.70
2018-02-14T12:55:23.029Z,3.70
2018-02-14T12:57:50.498Z,3.80
2018-02-14T13:00:18.971Z,3.70
2018-02-14T13:02:46.440Z,3.80
2018-02-14T13:05:16.127Z,3.90
2018-02-14T13:07:43.603Z,3.90
2018-02-14T13:10:11.094Z,3.90
2018-02-14T13:12:39.330Z,4.00
2018-02-14T13:15:07.626Z,4.00
2018-02-14T13:17:35.078Z,4.00
2018-02-14T13:20:03.521Z,4.00
2018-02-14T13:22:31.075Z,4.10
2018-02-14T13:24:58.541Z,4.10
2018-02-14T13:27:26.086Z,4.10
2018-02-14T13:29:53.557Z,4.10
2018-02-14T13:32:21.017Z,4.00
2018-02-14T13:34:48.486Z,4.10
2018-02-14T13:37:15.988Z,4.10
2018-02-14T13:39:44.732Z,4.20
2018-02-14T13:42:12.221Z,4.20
2018-02-14T13:44:39.977Z,4.20
2018-02-14T13:47:08.620Z,4.30
2018-02-14T13:49:37.299Z,4.30
2018-02-14T13:52:05.529Z,4.20
2018-02-14T13:54:33.021Z,4.10
2018-02-14T13:57:02.226Z,4.20
2018-02-14T13:59:29.775Z,4.20
2018-02-14T14:01:57.282Z,4.30
2018-02-14T14:04:24.778Z,4.30
2018-02-14T14:06:53.061Z,4.20
2018-02-14T14:09:21.307Z,4.30
2018-02-14T14:11:48.794Z,4.20
2018-02-14T14:14:17.043Z,4.20
2018-02-14T14:16:44.525Z,4.20
2018-02-14T14:19:12.035Z,4.20
2018-02-14T14:21:40.385Z,4.20
2018-02-14T14:24:07.864Z,4.30
2018-02-14T14:26:35.380Z,4.30
2018-02-14T14:29:04.613Z,4.20
2018-02-14T14:31:32.310Z,4.20
2018-02-14T14:34:00.142Z,4.30
2018-02-14T14:36:28.565Z,4.20
2018-02-14T14:38:56.038Z,4.10
2018-02-14T14:41:23.618Z,4.20
2018-02-14T14:43:51.853Z,4.10
2018-02-14T14:46:19.452Z,4.10
2018-02-14T14:48:48.832Z,4.10
2018-02-14T14:51:16.970Z,4.10
2018-02-14T14:53:44.460Z,4.10
2018-02-14T14:56:12.864Z,4.10
2018-02-14T14:58:40.330Z,4.00
2018-02-14T15:01:09.450Z,4.00
2018-02-14T15:03:37.878Z,4.00
2018-02-14T15:06:05.384Z,4.00
2018-02-14T15:08:33.196Z,4.00
2018-02-14T15:11:00.696Z,3.90
2018-02-14T15:13:28.201Z,3.90
2018-02-14T15:15:55.697Z,3.80
2018-02-14T15:18:24.200Z,3.70
2018-02-14T15:20:51.719Z,3.70
2018-02-14T15:23:19.245Z,3.70
2018-02-14T15:25:46.803Z,3.60
2018-02-14T15:28:14.312Z,3.50
2018-02-14T15:30:41.855Z,3.50
2018-02-14T15:33:09.354Z,3.40
2018-02-14T15:35:37.579Z,3.30
2018-02-14T15:38:05.193Z,3.30
2018-02-14T15:40:34.312Z,3.20
2018-02-14T15:43:01.832Z,3.20
2018-02-14T15:45:30.176Z,3.00
2018-02-14T15:47:58.946Z,3.00
2018-02-14T15:50:26.470Z,3.00
2018-02-14T15:52:54.000Z,2.90
2018-02-14T15:55:21.464Z,2.90
2018-02-14T15:57:48.933Z,2.90
2018-02-14T16:00:17.193Z,2.70
2018-02-14T16:02:44.698Z,2.70
2018-02-14T16:05:12.174Z,2.70
2018-02-14T16:07:41.546Z,2.60
2018-02-14T16:10:09.022Z,2.60
2018-02-14T16:12:36.499Z,2.50
2018-02-14T16:15:03.980Z,2.50
2018-02-14T16:17:31.446Z,2.40
2018-02-14T16:19:58.918Z,2.40
2018-02-14T16:22:27.150Z,2.20
2018-02-14T16:24:55.025Z,2.20
2018-02-14T16:27:22.538Z,2.20
2018-02-14T16:29:51.119Z,2.00
2018-02-14T16:32:19.361Z,1.90
2018-02-14T16:34:46.856Z,1.90
2018-02-14T16:37:14.309Z,1.80
2018-02-14T16:39:42.783Z,1.70
2018-02-14T16:42:11.029Z,1.70
2018-02-14T16:44:38.518Z,1.70
2018-02-14T16:47:07.818Z,1.60
2018-02-14T16:49:35.322Z,1.50
2018-02-14T16:52:08.882Z,1.50
2018-02-14T16:54:37.171Z,1.40
2018-02-14T16:57:05.063Z,1.40
2018-02-14T16:59:32.808Z,1.40
2018-02-14T17:02:00.317Z,1.40
2018-02-14T17:04:27.798Z,1.40
2018-02-14T17:06:55.278Z,1.40
2018-02-14T17:09:22.780Z,1.40
2018-02-14T17:12:06.206Z,1.50
2018-02-14T17:14:33.713Z,1.60
2018-02-14T17:17:01.960Z,1.60
2018-02-14T17:19:29.428Z,1.60
2018-02-14T17:21:56.910Z,1.60
2018-02-14T17:24:27.908Z,1.60
2018-02-14T17:26:55.410Z,1.50
2018-02-14T17:29:23.645Z,1.40
2018-02-14T17:31:51.141Z,1.40
2018-02-14T17:34:18.623Z,1.40
2018-02-14T17:36:46.105Z,1.30
2018-02-14T17:39:13.587Z,1.30
2018-02-14T17:41:41.074Z,1.20
2018-02-14T17:44:09.314Z,1.10
2018-02-14T17:46:36.923Z,1.00
2018-02-14T17:49:08.793Z,1.00
2018-02-14T17:51:36.530Z,1.00
2018-02-14T17:54:04.792Z,0.90
2018-02-14T17:56:32.286Z,0.90
2018-02-14T17:58:59.803Z,0.90
2018-02-14T18:01:27.334Z,0.80
2018-02-14T18:03:54.791Z,0.80
2018-02-14T18:06:22.278Z,0.80
2018-02-14T18:08:49.767Z,0.70
2018-02-14T18:11:24.021Z,0.50
2018-02-14T18:13:51.603Z,0.50
2018-02-14T18:16:20.217Z,0.50
2018-02-14T18:18:47.733Z,0.50
2018-02-14T18:21:15.326Z,0.50
2018-02-14T18:23:42.678Z,0.50
2018-02-14T18:26:11.065Z,0.50
2018-02-14T18:28:38.903Z,0.50
2018-02-14T18:31:06.386Z,0.50
2018-02-14T18:33:34.886Z,0.50
2018-02-14T18:36:03.178Z,0.50
2018-02-14T18:38:30.666Z,0.50
2018-02-14T18:40:58.131Z,0.50
2018-02-14T18:43:25.601Z,0.50
2018-02-14T18:45:53.066Z,0.50
2018-02-14T18:48:20.540Z,0.50
2018-02-14T18:50:48.017Z,0.50
2018-02-14T18:53:18.812Z,0.50
2018-02-14T18:55:56.232Z,0.50
2018-02-14T18:58:24.483Z,0.50
2018-02-14T19:00:51.959Z,0.40
2018-02-14T19:03:19.431Z,0.50
2018-02-14T19:05:47.674Z,0.50
2018-02-14T19:08:15.283Z,0.40
2018-02-14T19:10:42.755Z,0.40
2018-02-14T19:13:10.243Z,0.50
2018-02-14T19:15:37.701Z,0.50
2018-02-14T19:18:05.194Z,0.50
2018-02-14T19:20:32.661Z,0.50
2018-02-14T19:23:00.925Z,0.50
2018-02-14T19:25:28.399Z,0.50
2018-02-14T19:27:55.884Z,0.50
2018-02-14T19:30:25.260Z,0.50
2018-02-14T19:32:53.489Z,0.50
2018-02-14T19:35:20.978Z,0.50
2018-02-14T19:37:49.222Z,0.50
2018-02-14T19:40:16.717Z,0.50
2018-02-14T19:42:44.187Z,0.50
2018-02-14T19:45:14.419Z,0.50
2018-02-14T19:47:41.898Z,0.50
2018-02-14T19:50:09.373Z,0.60
2018-02-14T19:52:37.611Z,0.60
2018-02-14T19:55:05.844Z,0.60
2018-02-14T19:57:44.907Z,0.60
2018-02-14T20:03:27.355Z,0.60
2018-02-14T20:05:54.839Z,0.60
2018-02-14T20:08:22.296Z,0.60
2018-02-14T20:10:49.794Z,0.60
2018-02-14T20:13:17.270Z,0.60
2018-02-14T20:15:45.526Z,0.60
2018-02-14T20:18:13.007Z,0.50
2018-02-14T20:20:41.257Z,0.50
2018-02-14T20:23:08.718Z,0.50
2018-02-14T20:25:36.206Z,0.50
2018-02-14T20:28:04.445Z,0.50
2018-02-14T20:30:31.930Z,0.50
2018-02-14T20:32:59.396Z,0.50
2018-02-14T20:35:31.905Z,0.50
2018-02-14T20:37:59.375Z,0.50
2018-02-14T20:40:26.867Z,0.50
2018-02-14T20:42:54.334Z,0.50
2018-02-14T20:45:36.992Z,0.40
2018-02-14T20:48:08.003Z,0.40
2018-02-14T20:50:36.510Z,0.40
2018-02-14T20:53:10.188Z,0.40
2018-02-14T20:55:38.415Z,0.30
2018-02-14T20:58:05.882Z,0.30
2018-02-14T21:00:33.371Z,0.30
2018-02-14T21:03:01.598Z,0.20
2018-02-14T21:05:29.062Z,0.20
2018-02-14T21:07:56.538Z,0.20
2018-02-14T21:10:24.043Z,0.30
2018-02-14T21:12:51.505Z,0.30
2018-02-14T21:15:18.966Z,0.30
2018-02-14T21:17:46.455Z,0.30
2018-02-14T21:20:13.922Z,0.40
2018-02-14T21:22:41.398Z,0.40
2018-02-14T21:25:08.866Z,0.40
2018-02-14T21:27:37.114Z,0.40
2018-02-14T21:30:04.598Z,0.40
2018-02-14T21:32:32.075Z,0.40
2018-02-14T21:34:59.543Z,0.40
2018-02-14T21:37:27.001Z,0.40
2018-02-14T21:39:54.522Z,0.40
2018-02-14T21:42:22.292Z,0.40
2018-02-14T21:44:51.543Z,0.30
2018-02-14T21:47:19.009Z,0.30
2018-02-14T21:49:46.494Z,0.30
2018-02-14T21:52:13.977Z,0.30
2018-02-14T21:54:41.427Z,0.30
2018-02-14T22:00:02.530Z,0.30
2018-02-14T22:02:30.111Z,0.30
2018-02-14T22:04:57.621Z,0.30
2018-02-14T22:07:25.155Z,0.30
2018-02-14T22:09:52.631Z,0.20
2018-02-14T22:18:31.251Z,0.10
2018-02-14T22:20:58.712Z,0.10
2018-02-14T22:23:26.967Z,0.10
2018-02-14T22:25:54.440Z,0.10
2018-02-14T22:28:21.918Z,0.10
2018-02-14T22:30:49.399Z,0.10
2018-02-14T22:33:17.050Z,0.10
2018-02-14T22:35:44.536Z,0.10
2018-02-14T22:38:12.060Z,0.10
2018-02-14T22:40:39.640Z,0.10
2018-02-14T22:43:07.108Z,0.10
2018-02-14T22:45:34.592Z,0.10
2018-02-14T22:48:02.176Z,0.00
2018-02-14T22:50:29.636Z,0.00
2018-02-14T22:52:57.892Z,0.00
2018-02-14T22:55:25.610Z,0.00
2018-02-14T22:58:01.431Z,0.00
2018-02-14T23:00:29.296Z,0.00
2018-02-14T23:02:56.773Z,-0.10
2018-02-14T23:05:24.622Z,-0.10
2018-02-14T23:07:52.133Z,-0.10
2018-02-14T23:10:19.719Z,-0.20
2018-02-14T23:12:47.423Z,-0.20
2018-02-14T23:15:15.660Z,-0.20
2018-02-14T23:17:45.168Z,-0.20
2018-02-14T23:20:12.817Z,-0.30
2018-02-14T23:22:40.370Z,-0.20
2018-02-14T23:25:07.861Z,-0.30
2018-02-14T23:27:35.335Z,-0.20
2018-02-14T23:30:03.573Z,-0.30
2018-02-14T23:32:31.044Z,-0.30
2018-02-14T23:34:58.526Z,-0.30
2018-02-14T23:37:26.782Z,-0.30
2018-02-14T23:39:54.248Z,-0.30
2018-02-14T23:42:21.732Z,-0.20
2018-02-14T23:44:53.262Z,-0.20
2018-02-14T23:47:21.530Z,-0.30
2018-02-14T23:49:49.022Z,-0.30
2018-02-14T23:52:16.497Z,-0.30
2018-02-14T23:54:43.987Z,-0.30
2018-02-14T23:57:11.486Z,-0.20
2018-02-14T23:59:39.750Z,-0.20
